sensor_id;sensor_type;location;lat;lon;timestamp;P1;durP1;ratioP1;P2;durP2;ratioP2
71395;SDS011;59888;55.814;37.132;2022-10-26T00:00:38;8.70;;;4.43;;
71395;SDS011;59888;55.814;37.132;2022-10-26T00:03:03;13.57;;;4.78;;
71395;SDS011;59888;55.814;37.132;2022-10-26T00:05:31;10.98;;;4.75;;
71395;SDS011;59888;55.814;37.132;2022-10-26T00:07:58;11.07;;;4.78;;
71395;SDS011;59888;55.814;37.132;2022-10-26T00:10:24;10.50;;;5.05;;
71395;SDS011;59888;55.814;37.132;2022-10-26T00:12:50;15.35;;;4.95;;
71395;SDS011;59888;55.814;37.132;2022-10-26T00:15:16;16.23;;;5.40;;
71395;SDS011;59888;55.814;37.132;2022-10-26T00:17:44;14.88;;;5.40;;
71395;SDS011;59888;55.814;37.132;2022-10-26T00:20:10;10.85;;;4.10;;
71395;SDS011;59888;55.814;37.132;2022-10-26T00:22:36;10.65;;;4.50;;
71395;SDS011;59888;55.814;37.132;2022-10-26T00:25:02;9.38;;;4.68;;
71395;SDS011;59888;55.814;37.132;2022-10-26T00:27:28;8.55;;;3.75;;
71395;SDS011;59888;55.814;37.132;2022-10-26T00:29:54;10.25;;;4.50;;
71395;SDS011;59888;55.814;37.132;2022-10-26T00:32:20;9.90;;;4.20;;
71395;SDS011;59888;55.814;37.132;2022-10-26T00:34:46;14.38;;;4.63;;
71395;SDS011;59888;55.814;37.132;2022-10-26T00:37:11;7.90;;;3.90;;
71395;SDS011;59888;55.814;37.132;2022-10-26T00:39:37;9.40;;;4.07;;
71395;SDS011;59888;55.814;37.132;2022-10-26T00:42:03;8.55;;;4.03;;
71395;SDS011;59888;55.814;37.132;2022-10-26T00:52:49;8.02;;;3.20;;
71395;SDS011;59888;55.814;37.132;2022-10-26T00:55:17;10.80;;;3.85;;
71395;SDS011;59888;55.814;37.132;2022-10-26T00:57:45;8.32;;;4.07;;
71395;SDS011;59888;55.814;37.132;2022-10-26T01:00:12;9.95;;;3.40;;
71395;SDS011;59888;55.814;37.132;2022-10-26T01:02:38;7.15;;;3.53;;
71395;SDS011;59888;55.814;37.132;2022-10-26T01:05:05;10.93;;;3.20;;
71395;SDS011;59888;55.814;37.132;2022-10-26T01:07:31;13.38;;;3.80;;
71395;SDS011;59888;55.814;37.132;2022-10-26T01:09:58;9.18;;;3.50;;
71395;SDS011;59888;55.814;37.132;2022-10-26T01:12:25;8.95;;;3.42;;
71395;SDS011;59888;55.814;37.132;2022-10-26T01:14:51;10.13;;;3.30;;
71395;SDS011;59888;55.814;37.132;2022-10-26T01:17:35;8.25;;;2.88;;
71395;SDS011;59888;55.814;37.132;2022-10-26T01:31:32;9.55;;;3.63;;
71395;SDS011;59888;55.814;37.132;2022-10-26T01:34:10;9.02;;;3.88;;
71395;SDS011;59888;55.814;37.132;2022-10-26T01:36:48;7.32;;;3.55;;
71395;SDS011;59888;55.814;37.132;2022-10-26T01:39:24;9.32;;;3.55;;
71395;SDS011;59888;55.814;37.132;2022-10-26T01:41:58;7.97;;;3.30;;
71395;SDS011;59888;55.814;37.132;2022-10-26T01:44:29;9.18;;;3.45;;
71395;SDS011;59888;55.814;37.132;2022-10-26T01:47:03;9.77;;;3.30;;
71395;SDS011;59888;55.814;37.132;2022-10-26T01:49:32;8.65;;;3.72;;
71395;SDS011;59888;55.814;37.132;2022-10-26T01:52:02;9.38;;;4.07;;
71395;SDS011;59888;55.814;37.132;2022-10-26T01:54:28;7.20;;;3.50;;
71395;SDS011;59888;55.814;37.132;2022-10-26T01:56:55;7.57;;;3.67;;
71395;SDS011;59888;55.814;37.132;2022-10-26T01:59:36;10.05;;;4.07;;
71395;SDS011;59888;55.814;37.132;2022-10-26T02:07:39;9.43;;;3.45;;
71395;SDS011;59888;55.814;37.132;2022-10-26T02:15:52;8.07;;;3.20;;
71395;SDS011;59888;55.814;37.132;2022-10-26T02:20:55;5.40;;;3.03;;
71395;SDS011;59888;55.814;37.132;2022-10-26T02:23:31;8.05;;;3.15;;
71395;SDS011;59888;55.814;37.132;2022-10-26T02:26:02;7.95;;;3.30;;
71395;SDS011;59888;55.814;37.132;2022-10-26T02:28:32;10.15;;;3.67;;
71395;SDS011;59888;55.814;37.132;2022-10-26T02:31:01;5.65;;;2.92;;
71395;SDS011;59888;55.814;37.132;2022-10-26T02:33:30;8.43;;;3.28;;
71395;SDS011;59888;55.814;37.132;2022-10-26T02:35:59;6.95;;;3.15;;
71395;SDS011;59888;55.814;37.132;2022-10-26T02:38:29;10.13;;;3.10;;
71395;SDS011;59888;55.814;37.132;2022-10-26T02:40:57;6.15;;;3.05;;
71395;SDS011;59888;55.814;37.132;2022-10-26T02:43:26;10.25;;;3.50;;
71395;SDS011;59888;55.814;37.132;2022-10-26T02:45:58;15.35;;;3.65;;
71395;SDS011;59888;55.814;37.132;2022-10-26T02:48:29;10.60;;;3.90;;
71395;SDS011;59888;55.814;37.132;2022-10-26T02:53:31;10.07;;;4.07;;
71395;SDS011;59888;55.814;37.132;2022-10-26T02:56:03;14.25;;;4.60;;
71395;SDS011;59888;55.814;37.132;2022-10-26T02:58:36;10.23;;;3.97;;
71395;SDS011;59888;55.814;37.132;2022-10-26T03:01:05;11.82;;;4.05;;
71395;SDS011;59888;55.814;37.132;2022-10-26T03:03:32;12.52;;;4.22;;
71395;SDS011;59888;55.814;37.132;2022-10-26T03:05:58;10.20;;;4.25;;
71395;SDS011;59888;55.814;37.132;2022-10-26T03:08:23;12.43;;;4.53;;
71395;SDS011;59888;55.814;37.132;2022-10-26T03:10:49;12.60;;;3.95;;
71395;SDS011;59888;55.814;37.132;2022-10-26T03:13:15;13.80;;;4.88;;
71395;SDS011;59888;55.814;37.132;2022-10-26T03:15:41;12.50;;;4.53;;
71395;SDS011;59888;55.814;37.132;2022-10-26T03:18:07;8.05;;;4.30;;
71395;SDS011;59888;55.814;37.132;2022-10-26T03:20:33;9.38;;;4.18;;
71395;SDS011;59888;55.814;37.132;2022-10-26T03:22:59;10.10;;;4.25;;
71395;SDS011;59888;55.814;37.132;2022-10-26T03:25:25;10.68;;;4.82;;
71395;SDS011;59888;55.814;37.132;2022-10-26T03:27:57;9.68;;;4.07;;
71395;SDS011;59888;55.814;37.132;2022-10-26T03:30:24;10.27;;;4.45;;
71395;SDS011;59888;55.814;37.132;2022-10-26T03:32:51;9.05;;;4.10;;
71395;SDS011;59888;55.814;37.132;2022-10-26T03:35:17;11.07;;;4.20;;
71395;SDS011;59888;55.814;37.132;2022-10-26T03:37:43;11.15;;;4.53;;
71395;SDS011;59888;55.814;37.132;2022-10-26T03:40:09;9.95;;;4.53;;
71395;SDS011;59888;55.814;37.132;2022-10-26T03:42:35;13.25;;;4.80;;
71395;SDS011;59888;55.814;37.132;2022-10-26T03:45:02;12.15;;;4.82;;
71395;SDS011;59888;55.814;37.132;2022-10-26T03:47:29;16.08;;;5.07;;
71395;SDS011;59888;55.814;37.132;2022-10-26T03:49:55;13.75;;;4.72;;
71395;SDS011;59888;55.814;37.132;2022-10-26T03:52:21;11.98;;;4.93;;
71395;SDS011;59888;55.814;37.132;2022-10-26T03:54:48;15.07;;;4.68;;
71395;SDS011;59888;55.814;37.132;2022-10-26T03:57:14;10.38;;;4.65;;
71395;SDS011;59888;55.814;37.132;2022-10-26T03:59:40;12.00;;;5.03;;
71395;SDS011;59888;55.814;37.132;2022-10-26T04:02:05;14.20;;;4.97;;
71395;SDS011;59888;55.814;37.132;2022-10-26T04:04:31;10.70;;;4.53;;
71395;SDS011;59888;55.814;37.132;2022-10-26T04:06:57;12.38;;;4.68;;
71395;SDS011;59888;55.814;37.132;2022-10-26T04:09:23;12.43;;;5.18;;
71395;SDS011;59888;55.814;37.132;2022-10-26T04:11:48;10.18;;;4.60;;
71395;SDS011;59888;55.814;37.132;2022-10-26T04:14:14;11.57;;;4.93;;
71395;SDS011;59888;55.814;37.132;2022-10-26T04:16:40;11.23;;;4.78;;
71395;SDS011;59888;55.814;37.132;2022-10-26T04:19:06;10.70;;;4.78;;
71395;SDS011;59888;55.814;37.132;2022-10-26T04:21:31;12.70;;;4.40;;
71395;SDS011;59888;55.814;37.132;2022-10-26T04:23:57;9.90;;;4.28;;
71395;SDS011;59888;55.814;37.132;2022-10-26T04:26:23;9.43;;;4.93;;
71395;SDS011;59888;55.814;37.132;2022-10-26T04:28:49;16.17;;;4.75;;
71395;SDS011;59888;55.814;37.132;2022-10-26T04:31:15;13.48;;;4.90;;
71395;SDS011;59888;55.814;37.132;2022-10-26T04:33:41;11.60;;;4.65;;
71395;SDS011;59888;55.814;37.132;2022-10-26T04:36:07;9.85;;;4.80;;
71395;SDS011;59888;55.814;37.132;2022-10-26T04:38:32;13.43;;;5.07;;
71395;SDS011;59888;55.814;37.132;2022-10-26T04:40:58;13.30;;;5.03;;
71395;SDS011;59888;55.814;37.132;2022-10-26T04:43:24;10.02;;;4.65;;
71395;SDS011;59888;55.814;37.132;2022-10-26T04:45:53;9.05;;;4.63;;
71395;SDS011;59888;55.814;37.132;2022-10-26T04:48:20;12.10;;;5.07;;
71395;SDS011;59888;55.814;37.132;2022-10-26T04:50:45;12.43;;;4.88;;
71395;SDS011;59888;55.814;37.132;2022-10-26T04:53:11;8.70;;;4.63;;
71395;SDS011;59888;55.814;37.132;2022-10-26T04:55:37;11.05;;;4.47;;
71395;SDS011;59888;55.814;37.132;2022-10-26T04:58:03;12.25;;;5.03;;
71395;SDS011;59888;55.814;37.132;2022-10-26T05:00:29;10.43;;;4.80;;
71395;SDS011;59888;55.814;37.132;2022-10-26T05:03:00;11.02;;;5.15;;
71395;SDS011;59888;55.814;37.132;2022-10-26T05:05:28;12.32;;;5.88;;
71395;SDS011;59888;55.814;37.132;2022-10-26T05:07:55;9.68;;;4.95;;
71395;SDS011;59888;55.814;37.132;2022-10-26T05:10:21;10.70;;;5.20;;
71395;SDS011;59888;55.814;37.132;2022-10-26T05:12:51;10.55;;;5.07;;
71395;SDS011;59888;55.814;37.132;2022-10-26T05:15:18;8.77;;;4.90;;
71395;SDS011;59888;55.814;37.132;2022-10-26T05:17:44;13.30;;;5.13;;
71395;SDS011;59888;55.814;37.132;2022-10-26T05:20:09;11.57;;;5.30;;
71395;SDS011;59888;55.814;37.132;2022-10-26T05:22:38;13.60;;;5.88;;
71395;SDS011;59888;55.814;37.132;2022-10-26T05:25:05;11.18;;;4.90;;
71395;SDS011;59888;55.814;37.132;2022-10-26T05:27:31;10.38;;;4.97;;
71395;SDS011;59888;55.814;37.132;2022-10-26T05:29:56;11.02;;;4.80;;
71395;SDS011;59888;55.814;37.132;2022-10-26T05:32:22;14.43;;;5.35;;
71395;SDS011;59888;55.814;37.132;2022-10-26T05:34:48;11.18;;;5.55;;
71395;SDS011;59888;55.814;37.132;2022-10-26T05:37:14;12.15;;;5.35;;
71395;SDS011;59888;55.814;37.132;2022-10-26T05:39:39;13.85;;;5.88;;
71395;SDS011;59888;55.814;37.132;2022-10-26T05:42:05;14.20;;;5.00;;
71395;SDS011;59888;55.814;37.132;2022-10-26T05:44:31;14.20;;;5.30;;
71395;SDS011;59888;55.814;37.132;2022-10-26T05:46:56;11.70;;;5.70;;
71395;SDS011;59888;55.814;37.132;2022-10-26T05:49:22;11.02;;;5.32;;
71395;SDS011;59888;55.814;37.132;2022-10-26T05:51:48;10.07;;;5.60;;
71395;SDS011;59888;55.814;37.132;2022-10-26T05:54:14;13.20;;;5.55;;
71395;SDS011;59888;55.814;37.132;2022-10-26T05:56:40;11.55;;;5.68;;
71395;SDS011;59888;55.814;37.132;2022-10-26T05:59:12;11.63;;;5.10;;
71395;SDS011;59888;55.814;37.132;2022-10-26T06:01:43;12.50;;;5.70;;
71395;SDS011;59888;55.814;37.132;2022-10-26T06:04:28;10.63;;;5.05;;
71395;SDS011;59888;55.814;37.132;2022-10-26T06:07:03;8.88;;;4.85;;
71395;SDS011;59888;55.814;37.132;2022-10-26T06:09:42;11.82;;;5.45;;
71395;SDS011;59888;55.814;37.132;2022-10-26T06:12:08;8.82;;;4.70;;
71395;SDS011;59888;55.814;37.132;2022-10-26T06:14:35;11.50;;;5.38;;
71395;SDS011;59888;55.814;37.132;2022-10-26T06:17:16;11.40;;;5.38;;
71395;SDS011;59888;55.814;37.132;2022-10-26T06:20:17;10.80;;;4.82;;
71395;SDS011;59888;55.814;37.132;2022-10-26T06:25:48;12.02;;;5.45;;
71395;SDS011;59888;55.814;37.132;2022-10-26T06:31:21;12.30;;;5.03;;
71395;SDS011;59888;55.814;37.132;2022-10-26T06:33:46;12.98;;;5.57;;
71395;SDS011;59888;55.814;37.132;2022-10-26T06:36:23;11.75;;;5.00;;
71395;SDS011;59888;55.814;37.132;2022-10-26T06:39:04;11.13;;;4.93;;
71395;SDS011;59888;55.814;37.132;2022-10-26T06:41:33;10.32;;;4.88;;
71395;SDS011;59888;55.814;37.132;2022-10-26T06:44:01;15.05;;;5.45;;
71395;SDS011;59888;55.814;37.132;2022-10-26T06:46:40;12.88;;;5.00;;
71395;SDS011;59888;55.814;37.132;2022-10-26T06:49:28;14.07;;;5.47;;
71395;SDS011;59888;55.814;37.132;2022-10-26T06:54:45;12.35;;;5.07;;
71395;SDS011;59888;55.814;37.132;2022-10-26T06:57:17;10.40;;;4.78;;
71395;SDS011;59888;55.814;37.132;2022-10-26T07:02:19;8.27;;;4.35;;
71395;SDS011;59888;55.814;37.132;2022-10-26T07:04:45;12.25;;;4.10;;
71395;SDS011;59888;55.814;37.132;2022-10-26T07:07:11;11.93;;;4.38;;
71395;SDS011;59888;55.814;37.132;2022-10-26T07:09:42;7.95;;;4.20;;
71395;SDS011;59888;55.814;37.132;2022-10-26T07:12:08;9.52;;;4.50;;
71395;SDS011;59888;55.814;37.132;2022-10-26T07:14:33;8.55;;;4.10;;
71395;SDS011;59888;55.814;37.132;2022-10-26T07:16:59;10.13;;;4.90;;
71395;SDS011;59888;55.814;37.132;2022-10-26T07:19:25;9.00;;;4.05;;
71395;SDS011;59888;55.814;37.132;2022-10-26T07:21:53;9.63;;;4.60;;
71395;SDS011;59888;55.814;37.132;2022-10-26T07:24:21;8.80;;;3.78;;
71395;SDS011;59888;55.814;37.132;2022-10-26T07:26:47;8.95;;;4.68;;
71395;SDS011;59888;55.814;37.132;2022-10-26T07:29:13;10.45;;;4.25;;
71395;SDS011;59888;55.814;37.132;2022-10-26T07:31:40;9.93;;;4.35;;
71395;SDS011;59888;55.814;37.132;2022-10-26T07:34:07;8.63;;;4.47;;
71395;SDS011;59888;55.814;37.132;2022-10-26T07:36:33;6.90;;;4.28;;
71395;SDS011;59888;55.814;37.132;2022-10-26T07:39:01;8.95;;;4.35;;
71395;SDS011;59888;55.814;37.132;2022-10-26T07:41:28;9.50;;;4.25;;
71395;SDS011;59888;55.814;37.132;2022-10-26T07:43:54;9.98;;;4.43;;
71395;SDS011;59888;55.814;37.132;2022-10-26T07:46:20;11.02;;;4.82;;
71395;SDS011;59888;55.814;37.132;2022-10-26T07:48:46;10.35;;;5.18;;
71395;SDS011;59888;55.814;37.132;2022-10-26T07:51:12;8.63;;;4.63;;
71395;SDS011;59888;55.814;37.132;2022-10-26T07:53:37;11.65;;;4.68;;
71395;SDS011;59888;55.814;37.132;2022-10-26T07:56:03;8.20;;;4.90;;
71395;SDS011;59888;55.814;37.132;2022-10-26T07:58:29;8.43;;;4.88;;
71395;SDS011;59888;55.814;37.132;2022-10-26T08:00:55;16.42;;;5.15;;
71395;SDS011;59888;55.814;37.132;2022-10-26T08:03:21;9.15;;;4.70;;
71395;SDS011;59888;55.814;37.132;2022-10-26T08:05:48;12.23;;;4.88;;
71395;SDS011;59888;55.814;37.132;2022-10-26T08:08:20;11.63;;;4.55;;
71395;SDS011;59888;55.814;37.132;2022-10-26T08:10:46;13.63;;;5.13;;
71395;SDS011;59888;55.814;37.132;2022-10-26T08:13:12;9.13;;;4.75;;
71395;SDS011;59888;55.814;37.132;2022-10-26T08:15:38;13.85;;;5.32;;
71395;SDS011;59888;55.814;37.132;2022-10-26T08:18:05;11.45;;;4.85;;
71395;SDS011;59888;55.814;37.132;2022-10-26T08:20:31;14.25;;;4.88;;
71395;SDS011;59888;55.814;37.132;2022-10-26T08:22:57;16.98;;;5.55;;
71395;SDS011;59888;55.814;37.132;2022-10-26T08:25:24;23.10;;;5.57;;
71395;SDS011;59888;55.814;37.132;2022-10-26T08:27:50;8.57;;;4.50;;
71395;SDS011;59888;55.814;37.132;2022-10-26T08:30:16;8.98;;;5.10;;
71395;SDS011;59888;55.814;37.132;2022-10-26T08:32:42;8.18;;;4.60;;
71395;SDS011;59888;55.814;37.132;2022-10-26T08:35:08;8.70;;;4.80;;
71395;SDS011;59888;55.814;37.132;2022-10-26T08:37:35;13.77;;;4.68;;
71395;SDS011;59888;55.814;37.132;2022-10-26T08:40:01;15.43;;;4.95;;
71395;SDS011;59888;55.814;37.132;2022-10-26T08:42:42;22.45;;;6.03;;
71395;SDS011;59888;55.814;37.132;2022-10-26T08:45:23;11.70;;;5.45;;
71395;SDS011;59888;55.814;37.132;2022-10-26T08:47:57;8.98;;;4.63;;
71395;SDS011;59888;55.814;37.132;2022-10-26T08:50:33;10.05;;;5.03;;
71395;SDS011;59888;55.814;37.132;2022-10-26T08:55:46;11.18;;;5.35;;
71395;SDS011;59888;55.814;37.132;2022-10-26T08:58:15;9.95;;;4.80;;
71395;SDS011;59888;55.814;37.132;2022-10-26T09:00:46;8.70;;;4.85;;
71395;SDS011;59888;55.814;37.132;2022-10-26T09:03:14;10.25;;;4.95;;
71395;SDS011;59888;55.814;37.132;2022-10-26T09:05:47;10.52;;;4.78;;
71395;SDS011;59888;55.814;37.132;2022-10-26T09:08:38;8.55;;;4.78;;
71395;SDS011;59888;55.814;37.132;2022-10-26T09:11:25;11.05;;;5.25;;
71395;SDS011;59888;55.814;37.132;2022-10-26T09:14:15;9.85;;;4.55;;
71395;SDS011;59888;55.814;37.132;2022-10-26T09:25:17;9.18;;;4.70;;
71395;SDS011;59888;55.814;37.132;2022-10-26T09:27:54;10.45;;;5.18;;
71395;SDS011;59888;55.814;37.132;2022-10-26T09:30:23;11.77;;;5.28;;
71395;SDS011;59888;55.814;37.132;2022-10-26T09:32:49;10.93;;;4.32;;
71395;SDS011;59888;55.814;37.132;2022-10-26T09:35:27;9.77;;;4.88;;
71395;SDS011;59888;55.814;37.132;2022-10-26T09:38:22;9.45;;;5.30;;
71395;SDS011;59888;55.814;37.132;2022-10-26T09:41:05;9.65;;;4.80;;
71395;SDS011;59888;55.814;37.132;2022-10-26T09:46:30;8.93;;;5.07;;
71395;SDS011;59888;55.814;37.132;2022-10-26T09:49:12;8.88;;;4.53;;
71395;SDS011;59888;55.814;37.132;2022-10-26T09:51:42;9.43;;;4.78;;
71395;SDS011;59888;55.814;37.132;2022-10-26T09:54:33;22.40;;;5.65;;
71395;SDS011;59888;55.814;37.132;2022-10-26T09:56:59;8.40;;;4.40;;
71395;SDS011;59888;55.814;37.132;2022-10-26T09:59:26;9.73;;;4.93;;
71395;SDS011;59888;55.814;37.132;2022-10-26T10:01:55;10.52;;;4.30;;
71395;SDS011;59888;55.814;37.132;2022-10-26T10:04:21;7.28;;;4.20;;
71395;SDS011;59888;55.814;37.132;2022-10-26T10:06:49;11.30;;;4.38;;
71395;SDS011;59888;55.814;37.132;2022-10-26T10:09:17;10.25;;;4.88;;
71395;SDS011;59888;55.814;37.132;2022-10-26T10:11:49;10.48;;;5.03;;
71395;SDS011;59888;55.814;37.132;2022-10-26T10:14:22;10.55;;;5.10;;
71395;SDS011;59888;55.814;37.132;2022-10-26T10:16:53;10.27;;;4.65;;
71395;SDS011;59888;55.814;37.132;2022-10-26T10:19:42;11.23;;;5.40;;
71395;SDS011;59888;55.814;37.132;2022-10-26T10:22:10;8.77;;;4.90;;
71395;SDS011;59888;55.814;37.132;2022-10-26T10:24:53;8.55;;;4.53;;
71395;SDS011;59888;55.814;37.132;2022-10-26T10:27:20;10.88;;;4.85;;
71395;SDS011;59888;55.814;37.132;2022-10-26T10:29:51;9.90;;;4.72;;
71395;SDS011;59888;55.814;37.132;2022-10-26T10:32:27;10.55;;;5.45;;
71395;SDS011;59888;55.814;37.132;2022-10-26T10:34:58;9.50;;;5.53;;
71395;SDS011;59888;55.814;37.132;2022-10-26T10:37:26;11.27;;;5.32;;
71395;SDS011;59888;55.814;37.132;2022-10-26T10:39:58;10.95;;;5.32;;
71395;SDS011;59888;55.814;37.132;2022-10-26T10:42:32;9.35;;;4.95;;
71395;SDS011;59888;55.814;37.132;2022-10-26T10:45:00;13.48;;;5.10;;
71395;SDS011;59888;55.814;37.132;2022-10-26T10:47:30;9.93;;;4.82;;
71395;SDS011;59888;55.814;37.132;2022-10-26T10:50:01;9.65;;;4.80;;
71395;SDS011;59888;55.814;37.132;2022-10-26T10:52:32;8.80;;;4.50;;
71395;SDS011;59888;55.814;37.132;2022-10-26T10:57:36;10.02;;;4.82;;
71395;SDS011;59888;55.814;37.132;2022-10-26T11:00:19;9.80;;;5.03;;
71395;SDS011;59888;55.814;37.132;2022-10-26T11:02:49;9.55;;;5.28;;
71395;SDS011;59888;55.814;37.132;2022-10-26T11:05:41;11.55;;;4.95;;
71395;SDS011;59888;55.814;37.132;2022-10-26T11:13:32;9.90;;;4.75;;
71395;SDS011;59888;55.814;37.132;2022-10-26T11:16:11;11.18;;;4.82;;
71395;SDS011;59888;55.814;37.132;2022-10-26T11:19:42;10.35;;;4.90;;
71395;SDS011;59888;55.814;37.132;2022-10-26T11:22:16;11.77;;;5.30;;
71395;SDS011;59888;55.814;37.132;2022-10-26T11:25:03;11.98;;;5.28;;
71395;SDS011;59888;55.814;37.132;2022-10-26T11:27:33;7.32;;;4.78;;
71395;SDS011;59888;55.814;37.132;2022-10-26T11:35:30;10.23;;;4.82;;
71395;SDS011;59888;55.814;37.132;2022-10-26T11:43:32;10.45;;;5.05;;
71395;SDS011;59888;55.814;37.132;2022-10-26T11:46:04;10.02;;;4.88;;
71395;SDS011;59888;55.814;37.132;2022-10-26T11:51:35;9.95;;;4.80;;
71395;SDS011;59888;55.814;37.132;2022-10-26T11:54:14;7.88;;;4.53;;
71395;SDS011;59888;55.814;37.132;2022-10-26T11:56:46;11.52;;;4.90;;
71395;SDS011;59888;55.814;37.132;2022-10-26T11:59:16;9.55;;;4.47;;
71395;SDS011;59888;55.814;37.132;2022-10-26T12:01:55;7.72;;;4.32;;
71395;SDS011;59888;55.814;37.132;2022-10-26T12:04:27;9.20;;;4.60;;
71395;SDS011;59888;55.814;37.132;2022-10-26T12:06:55;11.57;;;4.63;;
71395;SDS011;59888;55.814;37.132;2022-10-26T12:09:25;14.32;;;4.80;;
71395;SDS011;59888;55.814;37.132;2022-10-26T12:11:57;11.30;;;5.10;;
71395;SDS011;59888;55.814;37.132;2022-10-26T12:20:20;12.23;;;5.47;;
71395;SDS011;59888;55.814;37.132;2022-10-26T12:23:14;9.30;;;4.55;;
71395;SDS011;59888;55.814;37.132;2022-10-26T12:25:41;10.32;;;5.18;;
71395;SDS011;59888;55.814;37.132;2022-10-26T12:28:36;12.02;;;4.82;;
71395;SDS011;59888;55.814;37.132;2022-10-26T12:31:39;13.23;;;5.07;;
71395;SDS011;59888;55.814;37.132;2022-10-26T12:36:49;9.63;;;4.55;;
71395;SDS011;59888;55.814;37.132;2022-10-26T12:39:44;12.25;;;4.60;;
71395;SDS011;59888;55.814;37.132;2022-10-26T12:47:59;11.27;;;4.60;;
71395;SDS011;59888;55.814;37.132;2022-10-26T12:49:58;11.63;;;5.38;;
71395;SDS011;59888;55.814;37.132;2022-10-26T13:00:27;10.38;;;4.38;;
71395;SDS011;59888;55.814;37.132;2022-10-26T13:02:59;11.40;;;5.07;;
71395;SDS011;59888;55.814;37.132;2022-10-26T13:08:27;8.73;;;4.50;;
71395;SDS011;59888;55.814;37.132;2022-10-26T13:11:04;10.13;;;4.90;;
71395;SDS011;59888;55.814;37.132;2022-10-26T13:13:32;13.90;;;5.82;;
71395;SDS011;59888;55.814;37.132;2022-10-26T13:16:01;9.32;;;5.03;;
71395;SDS011;59888;55.814;37.132;2022-10-26T13:18:28;10.02;;;4.82;;
71395;SDS011;59888;55.814;37.132;2022-10-26T13:23:41;14.73;;;6.63;;
71395;SDS011;59888;55.814;37.132;2022-10-26T13:26:22;20.77;;;7.15;;
71395;SDS011;59888;55.814;37.132;2022-10-26T13:34:17;20.27;;;7.63;;
71395;SDS011;59888;55.814;37.132;2022-10-26T13:36:49;15.10;;;5.95;;
71395;SDS011;59888;55.814;37.132;2022-10-26T13:39:26;10.00;;;4.50;;
71395;SDS011;59888;55.814;37.132;2022-10-26T13:41:55;10.95;;;5.65;;
71395;SDS011;59888;55.814;37.132;2022-10-26T13:44:32;9.60;;;4.88;;
71395;SDS011;59888;55.814;37.132;2022-10-26T13:47:26;16.45;;;5.38;;
71395;SDS011;59888;55.814;37.132;2022-10-26T13:50:10;10.50;;;5.30;;
71395;SDS011;59888;55.814;37.132;2022-10-26T13:52:44;12.48;;;5.22;;
71395;SDS011;59888;55.814;37.132;2022-10-26T13:55:30;9.30;;;4.57;;
71395;SDS011;59888;55.814;37.132;2022-10-26T14:01:03;18.27;;;7.90;;
71395;SDS011;59888;55.814;37.132;2022-10-26T14:03:29;16.50;;;7.50;;
71395;SDS011;59888;55.814;37.132;2022-10-26T14:05:55;10.68;;;6.07;;
71395;SDS011;59888;55.814;37.132;2022-10-26T14:08:21;10.23;;;5.43;;
71395;SDS011;59888;55.814;37.132;2022-10-26T14:10:54;14.35;;;5.45;;
71395;SDS011;59888;55.814;37.132;2022-10-26T14:13:24;8.60;;;4.85;;
71395;SDS011;59888;55.814;37.132;2022-10-26T14:15:52;9.55;;;4.60;;
71395;SDS011;59888;55.814;37.132;2022-10-26T14:18:27;12.10;;;4.10;;
71395;SDS011;59888;55.814;37.132;2022-10-26T14:21:04;9.75;;;4.22;;
71395;SDS011;59888;55.814;37.132;2022-10-26T14:23:36;12.60;;;5.05;;
71395;SDS011;59888;55.814;37.132;2022-10-26T14:26:19;8.82;;;4.60;;
71395;SDS011;59888;55.814;37.132;2022-10-26T14:28:47;15.95;;;5.65;;
71395;SDS011;59888;55.814;37.132;2022-10-26T14:31:34;14.15;;;5.07;;
71395;SDS011;59888;55.814;37.132;2022-10-26T14:34:03;9.45;;;4.35;;
71395;SDS011;59888;55.814;37.132;2022-10-26T14:37:15;10.40;;;3.80;;
71395;SDS011;59888;55.814;37.132;2022-10-26T14:39:23;11.20;;;5.40;;
71395;SDS011;59888;55.814;37.132;2022-10-26T14:41:53;8.48;;;4.30;;
71395;SDS011;59888;55.814;37.132;2022-10-26T14:44:21;12.15;;;5.00;;
71395;SDS011;59888;55.814;37.132;2022-10-26T14:46:48;8.85;;;4.60;;
71395;SDS011;59888;55.814;37.132;2022-10-26T14:49:18;5.65;;;3.35;;
71395;SDS011;59888;55.814;37.132;2022-10-26T14:51:46;9.60;;;3.55;;
71395;SDS011;59888;55.814;37.132;2022-10-26T14:54:20;10.35;;;3.75;;
71395;SDS011;59888;55.814;37.132;2022-10-26T14:56:48;9.38;;;3.72;;
71395;SDS011;59888;55.814;37.132;2022-10-26T14:59:19;9.65;;;3.40;;
71395;SDS011;59888;55.814;37.132;2022-10-26T15:02:14;12.55;;;5.35;;
71395;SDS011;59888;55.814;37.132;2022-10-26T15:04:59;9.30;;;4.30;;
71395;SDS011;59888;55.814;37.132;2022-10-26T15:07:35;9.80;;;3.90;;
71395;SDS011;59888;55.814;37.132;2022-10-26T15:10:02;12.43;;;4.88;;
71395;SDS011;59888;55.814;37.132;2022-10-26T15:17:40;10.85;;;3.42;;
71395;SDS011;59888;55.814;37.132;2022-10-26T15:20:13;10.25;;;4.28;;
71395;SDS011;59888;55.814;37.132;2022-10-26T15:22:44;5.95;;;3.25;;
71395;SDS011;59888;55.814;37.132;2022-10-26T15:25:16;5.72;;;3.15;;
71395;SDS011;59888;55.814;37.132;2022-10-26T15:27:45;7.30;;;3.38;;
71395;SDS011;59888;55.814;37.132;2022-10-26T15:32:54;7.80;;;3.67;;
71395;SDS011;59888;55.814;37.132;2022-10-26T15:37:57;7.40;;;3.25;;
71395;SDS011;59888;55.814;37.132;2022-10-26T15:40:25;9.32;;;3.25;;
71395;SDS011;59888;55.814;37.132;2022-10-26T15:42:53;5.47;;;2.78;;
71395;SDS011;59888;55.814;37.132;2022-10-26T15:45:26;8.25;;;3.00;;
71395;SDS011;59888;55.814;37.132;2022-10-26T15:47:55;8.63;;;3.10;;
71395;SDS011;59888;55.814;37.132;2022-10-26T15:50:23;4.93;;;3.13;;
71395;SDS011;59888;55.814;37.132;2022-10-26T15:53:01;7.75;;;3.38;;
71395;SDS011;59888;55.814;37.132;2022-10-26T15:55:35;7.30;;;3.03;;
71395;SDS011;59888;55.814;37.132;2022-10-26T15:58:00;8.90;;;3.53;;
71395;SDS011;59888;55.814;37.132;2022-10-26T16:00:26;6.30;;;3.20;;
71395;SDS011;59888;55.814;37.132;2022-10-26T16:02:52;9.63;;;3.40;;
71395;SDS011;59888;55.814;37.132;2022-10-26T16:05:20;7.68;;;3.42;;
71395;SDS011;59888;55.814;37.132;2022-10-26T16:07:46;8.93;;;4.07;;
71395;SDS011;59888;55.814;37.132;2022-10-26T16:10:14;10.77;;;3.80;;
71395;SDS011;59888;55.814;37.132;2022-10-26T16:12:44;9.13;;;3.85;;
71395;SDS011;59888;55.814;37.132;2022-10-26T16:15:14;9.20;;;3.60;;
71395;SDS011;59888;55.814;37.132;2022-10-26T16:17:45;9.85;;;3.70;;
71395;SDS011;59888;55.814;37.132;2022-10-26T16:20:18;9.02;;;3.88;;
71395;SDS011;59888;55.814;37.132;2022-10-26T16:22:49;10.90;;;4.45;;
71395;SDS011;59888;55.814;37.132;2022-10-26T16:25:17;8.38;;;3.90;;
71395;SDS011;59888;55.814;37.132;2022-10-26T16:27:45;10.82;;;4.38;;
71395;SDS011;59888;55.814;37.132;2022-10-26T16:30:12;11.30;;;5.03;;
71395;SDS011;59888;55.814;37.132;2022-10-26T16:32:39;12.23;;;5.13;;
71395;SDS011;59888;55.814;37.132;2022-10-26T16:35:05;9.82;;;4.82;;
71395;SDS011;59888;55.814;37.132;2022-10-26T16:37:31;9.40;;;4.18;;
71395;SDS011;59888;55.814;37.132;2022-10-26T16:40:02;11.32;;;4.60;;
71395;SDS011;59888;55.814;37.132;2022-10-26T16:42:29;11.23;;;4.57;;
71395;SDS011;59888;55.814;37.132;2022-10-26T16:44:56;10.57;;;4.85;;
71395;SDS011;59888;55.814;37.132;2022-10-26T16:47:22;7.57;;;3.88;;
71395;SDS011;59888;55.814;37.132;2022-10-26T16:49:48;12.70;;;4.85;;
71395;SDS011;59888;55.814;37.132;2022-10-26T16:52:14;8.02;;;4.45;;
71395;SDS011;59888;55.814;37.132;2022-10-26T16:54:39;7.57;;;4.20;;